createdAt,value
2018-02-09T00:00:16.603Z,-3.00
2018-02-09T00:02:43.046Z,-3.00
2018-02-09T00:05:09.517Z,-3.00
2018-02-09T00:07:36.257Z,-3.10
2018-02-09T00:10:02.731Z,-3.20
2018-02-09T00:12:37.996Z,-3.30
2018-02-09T00:15:04.455Z,-3.30
2018-02-09T00:17:30.981Z,-3.30
2018-02-09T00:19:57.418Z,-3.30
2018-02-09T00:22:36.146Z,-3.20
2018-02-09T00:25:02.791Z,-3.30
2018-02-09T00:27:29.447Z,-3.30
2018-02-09T00:29:55.984Z,-3.30
2018-02-09T00:32:23.193Z,-3.30
2018-02-09T00:34:49.626Z,-3.40
2018-02-09T00:37:16.056Z,-3.30
2018-02-09T00:39:42.622Z,-3.30
2018-02-09T00:42:09.792Z,-3.30
2018-02-09T00:44:36.237Z,-3.30
2018-02-09T00:47:02.827Z,-3.20
2018-02-09T00:49:29.301Z,-3.20
2018-02-09T00:51:56.467Z,-3.20
2018-02-09T00:54:22.917Z,-3.20
2018-02-09T00:56:49.701Z,-3.20
2018-02-09T00:59:16.156Z,-3.30
2018-02-09T01:01:43.778Z,-3.30
2018-02-09T01:04:10.326Z,-3.30
2018-02-09T01:06:36.793Z,-3.30
2018-02-09T01:09:03.362Z,-3.30
2018-02-09T01:11:29.827Z,-3.30
2018-02-09T01:13:56.365Z,-3.30
2018-02-09T01:16:22.923Z,-3.20
2018-02-09T01:18:49.380Z,-3.10
2018-02-09T01:21:15.866Z,-3.10
2018-02-09T01:23:42.509Z,-3.00
2018-02-09T01:26:09.679Z,-2.90
2018-02-09T01:28:36.824Z,-2.80
2018-02-09T01:31:04.004Z,-2.70
2018-02-09T01:33:31.162Z,-2.70
2018-02-09T01:35:57.560Z,-2.70
2018-02-09T01:38:24.733Z,-2.70
2018-02-09T01:40:51.166Z,-2.70
2018-02-09T01:43:17.591Z,-2.60
2018-02-09T01:45:44.059Z,-2.60
2018-02-09T01:48:10.601Z,-2.50
2018-02-09T01:50:37.071Z,-2.50
2018-02-09T01:53:03.502Z,-2.50
2018-02-09T01:55:29.946Z,-2.50
2018-02-09T01:57:56.366Z,-2.40
2018-02-09T02:00:22.892Z,-2.30
2018-02-09T02:02:49.302Z,-2.20
2018-02-09T02:05:15.694Z,-2.20
2018-02-09T02:07:42.145Z,-2.10
2018-02-09T02:10:08.524Z,-2.00
2018-02-09T02:12:35.007Z,-2.00
2018-02-09T02:15:01.499Z,-1.80
2018-02-09T02:17:28.664Z,-1.60
2018-02-09T02:19:55.106Z,-1.70
2018-02-09T02:22:21.554Z,-1.50
2018-02-09T02:24:47.958Z,-1.50
2018-02-09T02:27:15.132Z,-1.40
2018-02-09T02:29:41.567Z,-1.40
2018-02-09T02:32:08.051Z,-1.30
2018-02-09T02:34:34.507Z,-1.20
2018-02-09T02:37:01.731Z,-1.00
2018-02-09T02:39:28.991Z,-1.00
2018-02-09T02:41:55.395Z,-1.00
2018-02-09T02:44:21.831Z,-1.00
2018-02-09T02:46:48.274Z,-0.90
2018-02-09T02:49:14.724Z,-0.90
2018-02-09T02:51:41.958Z,-0.70
2018-02-09T02:54:08.408Z,-0.70
2018-02-09T02:56:34.828Z,-0.70
2018-02-09T02:59:02.028Z,-0.50
2018-02-09T03:01:28.416Z,-0.60
2018-02-09T03:03:54.827Z,-0.50
2018-02-09T03:06:21.271Z,-0.40
2018-02-09T03:08:47.801Z,-0.40
2018-02-09T03:11:14.234Z,-0.40
2018-02-09T03:13:40.690Z,-0.40
2018-02-09T03:16:07.110Z,-0.40
2018-02-09T03:18:33.539Z,-0.30
2018-02-09T03:20:59.980Z,-0.30
2018-02-09T03:23:26.526Z,-0.30
2018-02-09T03:25:52.915Z,-0.30
2018-02-09T03:28:19.383Z,-0.30
2018-02-09T03:30:45.800Z,-0.30
2018-02-09T03:33:12.262Z,-0.30
2018-02-09T03:35:45.831Z,-0.40
2018-02-09T03:38:12.249Z,-0.40
2018-02-09T03:40:38.658Z,-0.40
2018-02-09T03:43:05.097Z,-0.30
2018-02-09T03:45:31.521Z,-0.30
2018-02-09T03:47:57.922Z,-0.30
2018-02-09T03:50:24.338Z,-0.30
2018-02-09T03:52:50.892Z,-0.30
2018-02-09T03:55:17.319Z,-0.30
2018-02-09T03:57:43.748Z,-0.30
2018-02-09T04:00:10.994Z,-0.30
2018-02-09T04:02:37.395Z,-0.30
2018-02-09T04:05:03.815Z,-0.30
2018-02-09T04:07:30.303Z,-0.30
2018-02-09T04:09:56.704Z,-0.30
2018-02-09T04:12:23.130Z,-0.20
2018-02-09T04:14:49.534Z,-0.20
2018-02-09T04:17:16.037Z,-0.20
2018-02-09T04:19:42.479Z,-0.30
2018-02-09T04:22:08.874Z,-0.20
2018-02-09T04:24:35.295Z,-0.20
2018-02-09T04:27:01.869Z,-0.20
2018-02-09T04:29:28.333Z,-0.20
2018-02-09T04:31:54.764Z,-0.20
2018-02-09T04:34:21.920Z,-0.20
2018-02-09T04:36:48.330Z,-0.20
2018-02-09T04:39:14.709Z,-0.20
2018-02-09T04:41:41.287Z,-0.30
2018-02-09T04:44:07.698Z,-0.30
2018-02-09T04:46:34.111Z,-0.30
2018-02-09T04:49:00.687Z,-0.40
2018-02-09T04:51:27.843Z,-0.40
2018-02-09T04:53:54.258Z,-0.40
2018-02-09T04:56:20.680Z,-0.40
2018-02-09T04:58:47.112Z,-0.30
2018-02-09T05:01:13.582Z,-0.30
2018-02-09T05:03:40.828Z,-0.20
2018-02-09T05:06:08.037Z,-0.20
2018-02-09T05:08:34.458Z,-0.20
2018-02-09T05:11:00.904Z,-0.20
2018-02-09T05:13:27.321Z,-0.20
2018-02-09T05:15:53.721Z,-0.20
2018-02-09T05:18:20.897Z,-0.20
2018-02-09T05:20:47.488Z,-0.20
2018-02-09T05:23:13.923Z,-0.30
2018-02-09T05:25:41.993Z,-0.30
2018-02-09T05:28:08.405Z,-0.30
2018-02-09T05:30:34.870Z,-0.30
2018-02-09T05:33:01.310Z,-0.30
2018-02-09T05:35:28.544Z,-0.30
2018-02-09T05:37:54.950Z,-0.40
2018-02-09T05:40:21.487Z,-0.40
2018-02-09T05:42:48.024Z,-0.40
2018-02-09T05:45:14.581Z,-0.40
2018-02-09T05:47:41.117Z,-0.50
2018-02-09T05:50:07.653Z,-0.40
2018-02-09T05:52:35.010Z,-0.40
2018-02-09T05:55:01.439Z,-0.50
2018-02-09T05:57:27.898Z,-0.50
2018-02-09T05:59:54.278Z,-0.50
2018-02-09T06:02:20.844Z,-0.40
2018-02-09T06:04:47.251Z,-0.40
2018-02-09T06:07:13.677Z,-0.40
2018-02-09T06:09:40.155Z,-0.30
2018-02-09T06:12:07.006Z,-0.30
2018-02-09T06:14:33.501Z,-0.20
2018-02-09T06:17:00.057Z,-0.20
2018-02-09T06:19:27.302Z,-0.20
2018-02-09T06:21:54.560Z,-0.10
2018-02-09T06:24:21.767Z,-0.10
2018-02-09T06:26:48.186Z,-0.10
2018-02-09T06:29:14.680Z,0.00
2018-02-09T06:31:41.233Z,0.00
2018-02-09T06:34:07.804Z,0.10
2018-02-09T06:36:34.215Z,0.10
2018-02-09T06:39:00.709Z,0.10
2018-02-09T06:41:27.111Z,0.20
2018-02-09T06:43:53.614Z,0.20
2018-02-09T06:46:20.220Z,0.20
2018-02-09T06:48:47.678Z,0.30
2018-02-09T06:51:14.182Z,0.30
2018-02-09T06:53:40.856Z,0.30
2018-02-09T06:56:07.272Z,0.30
2018-02-09T06:58:33.820Z,0.30
2018-02-09T07:01:00.322Z,0.40
2018-02-09T07:03:26.753Z,0.40
2018-02-09T07:05:53.203Z,0.50
2018-02-09T07:08:19.959Z,0.40
2018-02-09T07:10:46.371Z,0.50
2018-02-09T07:13:12.786Z,0.40
2018-02-09T07:15:39.276Z,0.50
2018-02-09T07:18:06.415Z,0.50
2018-02-09T07:20:33.657Z,0.50
2018-02-09T07:23:00.868Z,0.60
2018-02-09T07:25:27.351Z,0.50
2018-02-09T07:27:54.561Z,0.50
2018-02-09T07:30:21.024Z,0.50
2018-02-09T07:32:47.435Z,0.60
2018-02-09T07:35:13.916Z,0.60
2018-02-09T07:37:40.429Z,0.60
2018-02-09T07:40:06.918Z,0.60
2018-02-09T07:42:33.387Z,0.70
2018-02-09T07:45:00.612Z,0.80
2018-02-09T07:47:27.162Z,0.70
2018-02-09T07:49:53.611Z,0.80
2018-02-09T07:52:20.063Z,0.80
2018-02-09T07:54:46.443Z,0.80
2018-02-09T07:57:12.873Z,0.90
2018-02-09T07:59:39.305Z,0.90
2018-02-09T08:02:05.869Z,1.00
2018-02-09T08:04:33.793Z,1.00
2018-02-09T08:07:00.231Z,1.00
2018-02-09T08:09:26.774Z,1.10
2018-02-09T08:11:54.727Z,1.10
2018-02-09T08:14:21.192Z,1.10
2018-02-09T08:16:47.682Z,1.20
2018-02-09T08:19:14.836Z,1.30
2018-02-09T08:21:42.010Z,1.30
2018-02-09T08:24:08.442Z,1.30
2018-02-09T08:26:35.033Z,1.30
2018-02-09T08:29:01.545Z,1.40
2018-02-09T08:31:27.942Z,1.40
2018-02-09T08:33:54.374Z,1.40
2018-02-09T08:36:21.562Z,1.40
2018-02-09T08:38:47.986Z,1.40
2018-02-09T08:41:14.476Z,1.50
2018-02-09T08:43:40.938Z,1.50
2018-02-09T08:46:07.474Z,1.60
2018-02-09T08:48:33.948Z,1.60
2018-02-09T08:51:00.394Z,1.70
2018-02-09T08:53:26.793Z,1.60
2018-02-09T08:55:53.263Z,1.60
2018-02-09T08:58:19.795Z,1.60
2018-02-09T09:00:46.955Z,1.70
2018-02-09T09:03:13.466Z,1.70
2018-02-09T09:05:40.642Z,1.80
2018-02-09T09:08:07.055Z,1.80
2018-02-09T09:10:33.536Z,1.90
2018-02-09T09:13:00.075Z,1.90
2018-02-09T09:15:26.510Z,1.90
2018-02-09T09:17:52.883Z,1.80
2018-02-09T09:20:19.332Z,1.80
2018-02-09T09:22:46.615Z,1.80
2018-02-09T09:25:13.057Z,1.80
2018-02-09T09:27:39.519Z,1.80
2018-02-09T09:30:05.971Z,1.80
2018-02-09T09:32:32.402Z,1.80
2018-02-09T09:34:58.852Z,1.90
2018-02-09T09:37:26.171Z,1.90
2018-02-09T09:39:52.724Z,1.80
2018-02-09T09:42:19.164Z,1.80
2018-02-09T09:44:45.670Z,1.90
2018-02-09T09:47:12.943Z,1.90
2018-02-09T09:49:39.399Z,1.90
2018-02-09T09:52:05.913Z,1.90
2018-02-09T09:54:32.342Z,1.90
2018-02-09T09:56:58.982Z,1.90
2018-02-09T09:59:25.392Z,1.90
2018-02-09T10:01:51.834Z,1.90
2018-02-09T10:04:18.270Z,2.00
2018-02-09T10:06:44.666Z,2.10
2018-02-09T10:09:11.086Z,2.10
2018-02-09T10:11:37.531Z,2.20
2018-02-09T10:14:04.099Z,2.30
2018-02-09T10:16:31.448Z,2.60
2018-02-09T10:18:58.661Z,2.70
2018-02-09T10:21:25.071Z,2.70
2018-02-09T10:23:51.503Z,2.80
2018-02-09T10:26:18.123Z,2.90
2018-02-09T10:28:51.423Z,2.90
2018-02-09T10:31:17.859Z,2.90
2018-02-09T10:33:44.385Z,3.00
2018-02-09T10:36:10.793Z,3.00
2018-02-09T10:38:37.206Z,3.10
2018-02-09T10:41:03.666Z,3.30
2018-02-09T10:43:30.882Z,3.40
2018-02-09T10:45:57.324Z,3.40
2018-02-09T10:48:23.796Z,3.50
2018-02-09T10:50:50.975Z,3.50
2018-02-09T10:53:17.443Z,3.50
2018-02-09T10:55:43.911Z,3.50
2018-02-09T10:58:10.351Z,3.50
2018-02-09T11:03:42.850Z,3.90
2018-02-09T11:06:10.046Z,3.90
2018-02-09T11:08:36.660Z,4.00
2018-02-09T11:11:03.134Z,4.10
2018-02-09T11:13:35.595Z,4.10
2018-02-09T11:16:02.042Z,4.10
2018-02-09T11:18:28.474Z,4.20
2018-02-09T11:20:54.902Z,4.30
2018-02-09T11:23:21.294Z,4.40
2018-02-09T11:25:48.450Z,4.50
2018-02-09T11:28:14.968Z,4.50
2018-02-09T11:30:41.445Z,4.60
2018-02-09T11:33:08.133Z,4.60
2018-02-09T11:35:35.597Z,4.60
2018-02-09T11:38:02.774Z,4.50
2018-02-09T11:40:29.195Z,4.50
2018-02-09T11:42:56.463Z,4.50
2018-02-09T11:45:23.067Z,4.50
2018-02-09T11:47:49.532Z,4.40
2018-02-09T11:50:16.056Z,4.30
2018-02-09T11:52:42.806Z,4.20
2018-02-09T11:55:09.511Z,4.20
2018-02-09T11:57:35.976Z,4.20
2018-02-09T12:00:02.457Z,4.30
2018-02-09T12:02:30.383Z,4.40
2018-02-09T12:04:56.839Z,4.40
2018-02-09T12:07:23.259Z,4.40
2018-02-09T12:09:49.681Z,4.30
2018-02-09T12:12:16.385Z,4.30
2018-02-09T12:14:43.625Z,4.20
2018-02-09T12:17:10.114Z,4.20
2018-02-09T12:19:37.030Z,4.10
2018-02-09T12:22:03.628Z,4.10
2018-02-09T12:24:30.080Z,4.10
2018-02-09T12:26:56.523Z,4.00
2018-02-09T12:29:23.053Z,4.00
2018-02-09T12:31:49.479Z,4.00
2018-02-09T12:34:16.021Z,4.00
2018-02-09T12:36:42.442Z,3.90
2018-02-09T12:39:08.885Z,3.80
2018-02-09T12:41:35.524Z,3.80
2018-02-09T12:44:01.946Z,3.90
2018-02-09T12:46:28.492Z,3.90
2018-02-09T12:48:55.838Z,4.00
2018-02-09T12:51:23.064Z,4.00
2018-02-09T12:53:49.813Z,4.00
2018-02-09T12:56:16.275Z,4.00
2018-02-09T12:58:42.675Z,3.90
2018-02-09T13:01:09.093Z,3.90
2018-02-09T13:03:35.628Z,3.80
2018-02-09T13:06:02.102Z,3.80
2018-02-09T13:08:28.518Z,3.80
2018-02-09T13:10:54.950Z,3.80
2018-02-09T13:13:22.293Z,3.80
2018-02-09T13:15:48.761Z,3.70
2018-02-09T13:18:27.513Z,3.70
2018-02-09T13:20:53.931Z,3.70
2018-02-09T13:23:33.100Z,3.70
2018-02-09T13:25:59.661Z,3.80
2018-02-09T13:28:38.450Z,3.90
2018-02-09T13:31:04.870Z,3.90
2018-02-09T13:33:31.369Z,3.90
2018-02-09T13:35:58.586Z,3.90
2018-02-09T13:38:25.017Z,3.90
2018-02-09T13:40:51.609Z,3.80
2018-02-09T13:43:18.149Z,3.80
2018-02-09T13:45:44.559Z,3.80
2018-02-09T13:48:11.195Z,3.70
2018-02-09T13:50:38.390Z,3.70
2018-02-09T13:53:04.882Z,3.70
2018-02-09T13:55:32.050Z,3.70
2018-02-09T13:57:58.596Z,3.70
2018-02-09T14:00:25.036Z,3.70
2018-02-09T14:02:51.640Z,3.80
2018-02-09T14:05:18.831Z,3.80
2018-02-09T14:07:45.417Z,3.80
2018-02-09T14:10:11.830Z,3.80
2018-02-09T14:12:38.255Z,3.80
2018-02-09T14:15:04.825Z,3.80
2018-02-09T14:17:31.298Z,3.90
2018-02-09T14:19:57.850Z,3.90
2018-02-09T14:22:24.328Z,3.90
2018-02-09T14:24:50.742Z,3.90
2018-02-09T14:27:17.408Z,3.90
2018-02-09T14:29:43.937Z,3.90
2018-02-09T14:32:10.675Z,3.80
2018-02-09T14:34:37.871Z,3.70
2018-02-09T14:37:04.355Z,3.70
2018-02-09T14:39:30.953Z,3.70
2018-02-09T14:41:57.393Z,3.70
2018-02-09T14:44:23.794Z,3.70
2018-02-09T14:46:51.103Z,3.60
2018-02-09T14:49:17.650Z,3.60
2018-02-09T14:51:44.056Z,3.60
2018-02-09T14:54:10.828Z,3.60
2018-02-09T14:56:38.033Z,3.50
2018-02-09T14:59:05.315Z,3.60
2018-02-09T15:01:31.781Z,3.50
2018-02-09T15:03:58.284Z,3.50
2018-02-09T15:06:25.511Z,3.60
2018-02-09T15:08:52.291Z,3.50
2018-02-09T15:11:18.785Z,3.50
2018-02-09T15:13:45.206Z,3.50
2018-02-09T15:16:11.607Z,3.40
2018-02-09T15:18:38.840Z,3.40
2018-02-09T15:21:05.244Z,3.30
2018-02-09T15:23:31.670Z,3.30
2018-02-09T15:25:58.159Z,3.30
2018-02-09T15:28:24.581Z,3.30
2018-02-09T15:30:51.107Z,3.30
2018-02-09T15:33:17.602Z,3.40
2018-02-09T15:35:44.045Z,3.40
2018-02-09T15:38:10.554Z,3.40
2018-02-09T15:40:43.187Z,3.40
2018-02-09T15:43:15.642Z,3.40
2018-02-09T15:45:48.894Z,3.40
2018-02-09T15:48:15.237Z,3.30
2018-02-09T15:50:41.570Z,3.40
2018-02-09T15:53:08.032Z,3.30
2018-02-09T15:55:40.627Z,3.30
2018-02-09T15:58:13.008Z,3.30
2018-02-09T16:00:39.517Z,3.30
2018-02-09T16:03:05.985Z,3.30
2018-02-09T16:05:33.189Z,3.20
2018-02-09T16:07:59.754Z,3.10
2018-02-09T16:10:26.177Z,3.20
2018-02-09T16:12:52.668Z,3.20
2018-02-09T16:15:19.274Z,3.20
2018-02-09T16:17:45.812Z,3.20
2018-02-09T16:20:13.116Z,3.10
2018-02-09T16:22:39.785Z,3.10
2018-02-09T16:25:07.204Z,3.10
2018-02-09T16:27:33.785Z,3.10
2018-02-09T16:30:01.025Z,3.10
2018-02-09T16:32:27.475Z,3.10
2018-02-09T16:34:54.051Z,3.10
2018-02-09T16:37:20.509Z,3.20
2018-02-09T16:39:47.000Z,3.10
2018-02-09T16:42:13.430Z,3.10
2018-02-09T16:44:39.858Z,3.10
2018-02-09T16:47:06.324Z,3.10
2018-02-09T16:49:32.805Z,3.10
2018-02-09T16:51:59.212Z,3.10
2018-02-09T16:54:25.640Z,3.10
2018-02-09T16:56:52.101Z,3.10
2018-02-09T16:59:19.283Z,3.10
2018-02-09T17:01:45.889Z,3.00
2018-02-09T17:04:13.087Z,3.10
2018-02-09T17:06:39.502Z,3.00
2018-02-09T17:09:05.946Z,3.10
2018-02-09T17:11:32.493Z,3.00
2018-02-09T17:13:58.924Z,3.10
2018-02-09T17:16:25.360Z,3.10
2018-02-09T17:18:51.837Z,3.10
2018-02-09T17:21:19.090Z,3.00
2018-02-09T17:23:45.513Z,3.00
2018-02-09T17:26:11.953Z,2.90
2018-02-09T17:28:38.363Z,2.90
2018-02-09T17:31:05.035Z,2.80
2018-02-09T17:33:31.504Z,2.80
2018-02-09T17:35:58.084Z,2.80
2018-02-09T17:38:24.508Z,2.70
2018-02-09T17:40:51.080Z,2.70
2018-02-09T17:43:18.276Z,2.70
2018-02-09T17:45:44.717Z,2.70
2018-02-09T17:48:11.143Z,2.70
2018-02-09T17:50:37.561Z,2.70
2018-02-09T17:53:03.995Z,2.70
2018-02-09T17:55:31.531Z,2.70
2018-02-09T17:57:57.989Z,2.70
2018-02-09T18:00:24.460Z,2.70
2018-02-09T18:02:50.898Z,2.70
2018-02-09T18:05:17.378Z,2.70
2018-02-09T18:07:43.834Z,2.80
2018-02-09T18:10:10.295Z,2.70
2018-02-09T18:12:36.763Z,2.80
2018-02-09T18:15:03.971Z,2.80
2018-02-09T18:17:30.493Z,2.80
2018-02-09T18:19:57.045Z,2.80
2018-02-09T18:22:23.507Z,2.80
2018-02-09T18:24:50.854Z,2.90
2018-02-09T18:27:18.109Z,2.90
2018-02-09T18:29:45.308Z,2.90
2018-02-09T18:32:11.756Z,2.80
2018-02-09T18:34:38.196Z,2.80
2018-02-09T18:37:04.741Z,2.80
2018-02-09T18:39:32.020Z,2.90
2018-02-09T18:41:59.242Z,2.90
2018-02-09T18:44:26.414Z,2.90
2018-02-09T18:46:52.876Z,2.90
2018-02-09T18:49:19.307Z,2.90
2018-02-09T18:51:45.813Z,2.90
2018-02-09T18:54:13.273Z,3.00
2018-02-09T18:56:40.465Z,3.00
2018-02-09T18:59:07.045Z,3.00
2018-02-09T19:01:33.508Z,3.00
2018-02-09T19:03:59.929Z,3.00
2018-02-09T19:06:26.450Z,2.90
2018-02-09T19:08:53.818Z,2.90
2018-02-09T19:11:20.349Z,2.90
2018-02-09T19:13:46.759Z,2.90
2018-02-09T19:16:13.215Z,2.90
2018-02-09T19:18:39.599Z,3.00
2018-02-09T19:21:06.045Z,2.90
2018-02-09T19:23:32.719Z,2.90
2018-02-09T19:25:59.898Z,3.00
2018-02-09T19:28:27.034Z,3.00
2018-02-09T19:30:53.644Z,2.90
2018-02-09T19:33:20.296Z,2.90
2018-02-09T19:35:46.820Z,2.90
2018-02-09T19:38:13.282Z,2.90
2018-02-09T19:40:39.713Z,2.90
2018-02-09T19:43:07.024Z,2.90
2018-02-09T19:45:33.539Z,2.90
2018-02-09T19:48:00.120Z,2.90
2018-02-09T19:50:27.295Z,2.90
2018-02-09T19:52:54.583Z,2.90
2018-02-09T19:55:21.193Z,2.90
2018-02-09T19:57:48.006Z,2.90
2018-02-09T20:00:15.444Z,2.80
2018-02-09T20:02:42.016Z,2.80
2018-02-09T20:05:08.616Z,2.80
2018-02-09T20:07:35.376Z,2.80
2018-02-09T20:10:02.572Z,2.80
2018-02-09T20:12:29.105Z,2.80
2018-02-09T20:14:55.740Z,2.80
2018-02-09T20:17:22.681Z,2.80
2018-02-09T20:19:49.481Z,2.80
2018-02-09T20:22:16.735Z,2.90
2018-02-09T20:24:44.157Z,2.90
2018-02-09T20:27:10.698Z,2.90
2018-02-09T20:29:38.697Z,2.90
2018-02-09T20:32:05.270Z,2.80
2018-02-09T20:34:31.984Z,2.90
2018-02-09T20:36:58.790Z,2.90
2018-02-09T20:39:25.291Z,2.90
2018-02-09T20:41:51.894Z,3.00
2018-02-09T20:44:19.154Z,3.00
2018-02-09T20:46:45.788Z,2.90
2018-02-09T20:49:12.245Z,3.00
2018-02-09T20:51:38.957Z,2.90
2018-02-09T20:54:06.206Z,2.90
2018-02-09T20:56:32.629Z,2.90
2018-02-09T20:58:59.376Z,2.90
2018-02-09T21:01:26.571Z,2.90
2018-02-09T21:03:53.163Z,2.90
2018-02-09T21:06:19.650Z,2.90
2018-02-09T21:08:46.120Z,2.90
2018-02-09T21:11:12.547Z,2.90
2018-02-09T21:13:39.221Z,2.90
2018-02-09T21:16:05.685Z,2.90
2018-02-09T21:18:32.171Z,2.80
2018-02-09T21:20:59.372Z,2.80
2018-02-09T21:23:25.951Z,2.80
2018-02-09T21:25:52.468Z,2.80
2018-02-09T21:28:18.925Z,2.80
2018-02-09T21:30:45.408Z,2.80
2018-02-09T21:33:11.828Z,2.80
2018-02-09T21:35:39.098Z,2.80
2018-02-09T21:38:05.513Z,2.70
2018-02-09T21:40:32.016Z,2.80
2018-02-09T21:42:58.511Z,2.80
2018-02-09T21:45:24.963Z,2.90
2018-02-09T21:47:51.414Z,2.90
2018-02-09T21:50:18.606Z,2.80
2018-02-09T21:52:45.252Z,2.80
2018-02-09T21:55:11.724Z,2.80
2018-02-09T21:57:38.270Z,2.80
2018-02-09T22:00:05.626Z,2.80
2018-02-09T22:02:32.242Z,2.80
2018-02-09T22:04:58.728Z,2.80
2018-02-09T22:07:25.438Z,2.90
2018-02-09T22:09:51.990Z,2.80
2018-02-09T22:12:19.192Z,2.70
2018-02-09T22:14:45.651Z,2.70
2018-02-09T22:17:12.831Z,2.60
2018-02-09T22:19:39.440Z,2.60
2018-02-09T22:22:06.699Z,2.50
2018-02-09T22:24:33.180Z,2.50
2018-02-09T22:26:59.879Z,2.40
2018-02-09T22:29:26.396Z,2.40
2018-02-09T22:31:52.912Z,2.40
2018-02-09T22:34:19.449Z,2.40
2018-02-09T22:36:45.883Z,2.30
2018-02-09T22:39:12.311Z,2.30
2018-02-09T22:41:38.791Z,2.30
2018-02-09T22:44:05.961Z,2.40
2018-02-09T22:46:33.098Z,2.30
2018-02-09T22:48:59.627Z,2.30
2018-02-09T22:51:26.141Z,2.30
2018-02-09T22:53:52.550Z,2.20
2018-02-09T22:56:18.990Z,2.20
2018-02-09T22:58:45.430Z,2.10
2018-02-09T23:01:11.909Z,2.10
2018-02-09T23:03:39.226Z,2.00
2018-02-09T23:06:06.563Z,2.00
2018-02-09T23:08:33.900Z,2.10
2018-02-09T23:11:00.383Z,2.00
2018-02-09T23:13:27.575Z,2.00
2018-02-09T23:15:54.096Z,2.00
2018-02-09T23:18:20.681Z,2.00
2018-02-09T23:20:47.226Z,2.00
2018-02-09T23:23:13.882Z,1.90
2018-02-09T23:25:41.088Z,1.70
2018-02-09T23:28:07.638Z,1.60
2018-02-09T23:30:34.840Z,1.50
2018-02-09T23:33:01.372Z,1.50
2018-02-09T23:35:27.786Z,1.50
2018-02-09T23:37:54.966Z,1.50
2018-02-09T23:40:21.764Z,1.50
2018-02-09T23:42:48.205Z,1.40
2018-02-09T23:45:15.387Z,1.30
2018-02-09T23:47:41.877Z,1.30
2018-02-09T23:50:08.351Z,1.20
2018-02-09T23:52:35.249Z,1.10
2018-02-09T23:55:02.508Z,0.90
2018-02-09T23:57:29.719Z,0.80
2018-02-09T23:59:56.306Z,0.80
